Time,TemperatureF,DewpointF,PressureIn,WindDirection,WindDirectionDegrees,WindSpeedMPH,WindSpeedGustMPH,Humidity,HourlyPrecipIn,Conditions,Clouds,dailyrainin,SoftwareType,DateUTC
2013-05-01 00:02:00,55.0,52.0,-100.00,SW,220,7.0,14.0,88,-99.99,,,-99.99,,2013-05-01 05:02:00,
2013-05-01 00:11:00,55.0,52.0,-100.00,SW,220,7.0,14.0,88,-99.99,,,-99.99,,2013-05-01 05:11:00,
2013-05-01 00:32:00,54.0,52.0,-100.00,NNE,30,0.0,3.0,94,-99.99,,,-99.99,,2013-05-01 05:32:00,
2013-05-01 00:42:00,54.0,52.0,-100.00,NNE,30,0.0,3.0,94,-99.99,,,-99.99,,2013-05-01 05:42:00,
2013-05-01 00:52:00,54.0,52.0,-100.00,NNE,30,0.0,3.0,94,-99.99,,,-99.99,,2013-05-01 05:52:00,
2013-05-01 01:02:00,54.0,52.0,-100.00,NNE,30,0.0,3.0,94,-99.99,,,-99.99,,2013-05-01 06:02:00,
2013-05-01 01:11:00,54.0,52.0,-100.00,NNE,30,0.0,3.0,94,-99.99,,,-99.99,,2013-05-01 06:11:00,
2013-05-01 01:32:00,51.0,50.0,-100.00,NNW,335,3.0,6.0,94,-99.99,,,-99.99,,2013-05-01 06:32:00,
2013-05-01 01:42:00,51.0,50.0,-100.00,NNW,335,3.0,6.0,94,-99.99,,,-99.99,,2013-05-01 06:42:00,
2013-05-01 01:52:00,51.0,50.0,-100.00,NNW,335,3.0,6.0,94,-99.99,,,-99.99,,2013-05-01 06:52:00,
2013-05-01 02:01:00,51.0,50.0,-100.00,NNW,335,3.0,6.0,94,-99.99,,,-99.99,,2013-05-01 07:01:00,
2013-05-01 02:11:00,51.0,50.0,-100.00,NNW,335,3.0,6.0,94,-99.99,,,-99.99,,2013-05-01 07:11:00,
2013-05-01 02:32:00,51.0,47.0,-100.00,NW,320,0.0,1.0,87,-99.99,,,-99.99,,2013-05-01 07:32:00,
2013-05-01 02:42:00,51.0,47.0,-100.00,NW,320,0.0,1.0,87,-99.99,,,-99.99,,2013-05-01 07:42:00,
2013-05-01 02:52:00,51.0,47.0,-100.00,NW,320,0.0,1.0,87,-99.99,,,-99.99,,2013-05-01 07:52:00,
2013-05-01 03:01:00,51.0,47.0,-100.00,NW,320,0.0,1.0,87,-99.99,,,-99.99,,2013-05-01 08:01:00,
2013-05-01 03:11:00,51.0,47.0,-100.00,NW,320,0.0,1.0,87,-99.99,,,-99.99,,2013-05-01 08:11:00,
2013-05-01 03:32:00,49.0,46.0,-100.00,NW,310,4.0,9.0,87,-99.99,,,-99.99,,2013-05-01 08:32:00,
2013-05-01 03:42:00,49.0,46.0,-100.00,NW,310,4.0,9.0,87,-99.99,,,-99.99,,2013-05-01 08:42:00,
2013-05-01 03:53:00,49.0,46.0,-100.00,NW,310,4.0,9.0,87,-99.99,,,-99.99,,2013-05-01 08:53:00,
2013-05-01 04:01:00,49.0,46.0,-100.00,NW,310,4.0,9.0,87,-99.99,,,-99.99,,2013-05-01 09:01:00,
2013-05-01 04:11:00,49.0,46.0,-100.00,NW,310,4.0,9.0,87,-99.99,,,-99.99,,2013-05-01 09:11:00,
2013-05-01 04:33:00,47.0,46.0,-100.00,NW,320,1.0,6.0,95,-99.99,,,-99.99,,2013-05-01 09:33:00,
2013-05-01 04:43:00,47.0,46.0,-100.00,NW,320,1.0,6.0,95,-99.99,,,-99.99,,2013-05-01 09:43:00,
2013-05-01 04:53:00,47.0,46.0,-100.00,NW,320,1.0,6.0,95,-99.99,,,-99.99,,2013-05-01 09:53:00,
2013-05-01 05:02:00,47.0,46.0,-100.00,NW,320,1.0,6.0,95,-99.99,,,-99.99,,2013-05-01 10:02:00,
2013-05-01 05:12:00,47.0,46.0,-100.00,NW,320,1.0,6.0,95,-99.99,,,-99.99,,2013-05-01 10:12:00,
2013-05-01 05:33:00,48.0,48.0,-100.00,NNW,345,1.0,2.0,98,-99.99,,,-99.99,,2013-05-01 10:33:00,
2013-05-01 05:42:00,48.0,48.0,-100.00,NNW,345,1.0,2.0,98,-99.99,,,-99.99,,2013-05-01 10:42:00,
2013-05-01 05:53:00,48.0,48.0,-100.00,NNW,345,1.0,2.0,98,-99.99,,,-99.99,,2013-05-01 10:53:00,
2013-05-01 06:02:00,48.0,48.0,-100.00,NNW,345,1.0,2.0,98,-99.99,,,-99.99,,2013-05-01 11:02:00,
2013-05-01 06:11:00,48.0,48.0,-100.00,NNW,345,1.0,2.0,98,-99.99,,,-99.99,,2013-05-01 11:11:00,
2013-05-01 06:32:00,48.0,42.0,-100.00,NW,325,6.0,14.0,80,-99.99,,,-99.99,,2013-05-01 11:32:00,
2013-05-01 06:42:00,48.0,42.0,-100.00,NW,325,6.0,14.0,80,-99.99,,,-99.99,,2013-05-01 11:42:00,
2013-05-01 06:52:00,48.0,42.0,-100.00,NW,325,6.0,14.0,80,-99.99,,,-99.99,,2013-05-01 11:52:00,
2013-05-01 07:01:00,48.0,42.0,-100.00,NW,325,6.0,14.0,80,-99.99,,,-99.99,,2013-05-01 12:01:00,
2013-05-01 07:11:00,48.0,42.0,-100.00,NW,325,6.0,14.0,80,-99.99,,,-99.99,,2013-05-01 12:11:00,
2013-05-01 07:32:00,46.0,42.0,-100.00,NW,325,7.0,14.0,83,-99.99,,,-99.99,,2013-05-01 12:32:00,
2013-05-01 07:42:00,46.0,42.0,-100.00,NW,325,7.0,14.0,83,-99.99,,,-99.99,,2013-05-01 12:42:00,
2013-05-01 07:52:00,46.0,42.0,-100.00,NW,325,7.0,14.0,83,-99.99,,,-99.99,,2013-05-01 12:52:00,
2013-05-01 08:01:00,46.0,42.0,-100.00,NW,325,7.0,14.0,83,-99.99,,,-99.99,,2013-05-01 13:01:00,
2013-05-01 08:11:00,46.0,42.0,-100.00,NW,325,7.0,14.0,83,-99.99,,,-99.99,,2013-05-01 13:11:00,
2013-05-01 08:32:00,46.0,42.0,-100.00,NNW,330,4.0,11.0,85,-99.99,,,-99.99,,2013-05-01 13:32:00,
2013-05-01 08:42:00,46.0,42.0,-100.00,NNW,330,4.0,11.0,85,-99.99,,,-99.99,,2013-05-01 13:42:00,
2013-05-01 09:32:00,45.0,43.0,-100.00,NW,325,6.0,14.0,91,-99.99,,,-99.99,,2013-05-01 14:32:00,
2013-05-01 09:42:00,45.0,43.0,-100.00,NW,325,6.0,14.0,91,-99.99,,,-99.99,,2013-05-01 14:42:00,
2013-05-01 09:52:00,45.0,43.0,-100.00,NW,325,6.0,14.0,91,-99.99,,,-99.99,,2013-05-01 14:52:00,
2013-05-01 10:01:00,45.0,43.0,-100.00,NW,325,6.0,14.0,91,-99.99,,,-99.99,,2013-05-01 15:01:00,
2013-05-01 10:11:00,45.0,43.0,-100.00,NW,325,6.0,14.0,91,-99.99,,,-99.99,,2013-05-01 15:11:00,
2013-05-01 10:33:00,46.0,42.0,-100.00,NNW,340,6.0,17.0,86,-99.99,,,-99.99,,2013-05-01 15:33:00,
2013-05-01 10:43:00,46.0,42.0,-100.00,NNW,340,6.0,17.0,86,-99.99,,,-99.99,,2013-05-01 15:43:00,
2013-05-01 10:53:00,46.0,42.0,-100.00,NNW,340,6.0,17.0,86,-99.99,,,-99.99,,2013-05-01 15:53:00,
2013-05-01 11:03:00,46.0,42.0,-100.00,NNW,340,6.0,17.0,86,-99.99,,,-99.99,,2013-05-01 16:03:00,
2013-05-01 11:12:00,46.0,42.0,-100.00,NNW,340,6.0,17.0,86,-99.99,,,-99.99,,2013-05-01 16:12:00,
2013-05-01 11:42:00,45.0,41.0,-100.00,North,350,4.0,12.0,85,-99.99,,,-99.99,,2013-05-01 16:42:00,
2013-05-01 11:53:00,45.0,41.0,-100.00,North,350,4.0,12.0,85,-99.99,,,-99.99,,2013-05-01 16:53:00,
2013-05-01 12:02:00,45.0,41.0,-100.00,North,350,4.0,12.0,85,-99.99,,,-99.99,,2013-05-01 17:02:00,
2013-05-01 12:12:00,45.0,41.0,-100.00,North,350,4.0,12.0,85,-99.99,,,-99.99,,2013-05-01 17:12:00,
2013-05-01 12:32:00,46.0,41.0,-100.00,NNW,345,4.0,13.0,82,-99.99,,,-99.99,,2013-05-01 17:32:00,
2013-05-01 12:42:00,46.0,41.0,-100.00,NNW,345,4.0,13.0,82,-99.99,,,-99.99,,2013-05-01 17:42:00,
2013-05-01 12:52:00,46.0,41.0,-100.00,NNW,345,4.0,13.0,82,-99.99,,,-99.99,,2013-05-01 17:52:00,
2013-05-01 13:01:00,46.0,41.0,-100.00,NNW,345,4.0,13.0,82,-99.99,,,-99.99,,2013-05-01 18:01:00,
2013-05-01 13:11:00,46.0,41.0,-100.00,NNW,345,4.0,13.0,82,-99.99,,,-99.99,,2013-05-01 18:11:00,
2013-05-01 13:42:00,45.0,39.0,-100.00,NNW,335,8.0,17.0,79,-99.99,,,-99.99,,2013-05-01 18:42:00,
2013-05-01 13:52:00,45.0,39.0,-100.00,NNW,335,8.0,17.0,79,-99.99,,,-99.99,,2013-05-01 18:52:00,
2013-05-01 14:02:00,45.0,39.0,-100.00,NNW,335,8.0,17.0,79,-99.99,,,-99.99,,2013-05-01 19:02:00,
2013-05-01 14:11:00,45.0,39.0,-100.00,NNW,335,8.0,17.0,79,-99.99,,,-99.99,,2013-05-01 19:11:00,
2013-05-01 14:32:00,46.0,40.0,-100.00,NNW,340,3.0,12.0,80,-99.99,,,-99.99,,2013-05-01 19:32:00,
2013-05-01 14:43:00,46.0,40.0,-100.00,NNW,340,3.0,12.0,80,-99.99,,,-99.99,,2013-05-01 19:43:00,
2013-05-01 14:52:00,46.0,40.0,-100.00,NNW,340,3.0,12.0,80,-99.99,,,-99.99,,2013-05-01 19:52:00,
2013-05-01 15:01:00,46.0,40.0,-100.00,NNW,340,3.0,12.0,80,-99.99,,,-99.99,,2013-05-01 20:01:00,
2013-05-01 15:11:00,46.0,40.0,-100.00,NNW,340,3.0,12.0,80,-99.99,,,-99.99,,2013-05-01 20:11:00,
2013-05-01 15:32:00,43.0,39.0,-100.00,NNW,335,9.0,21.0,84,-99.99,,,-99.99,,2013-05-01 20:32:00,
2013-05-01 15:42:00,43.0,39.0,-100.00,NNW,335,9.0,21.0,84,-99.99,,,-99.99,,2013-05-01 20:42:00,
2013-05-01 15:52:00,43.0,39.0,-100.00,NNW,335,9.0,21.0,84,-99.99,,,-99.99,,2013-05-01 20:52:00,
2013-05-01 16:01:00,43.0,39.0,-100.00,NNW,335,9.0,21.0,84,-99.99,,,-99.99,,2013-05-01 21:01:00,
2013-05-01 16:11:00,43.0,39.0,-100.00,NNW,335,9.0,21.0,84,-99.99,,,-99.99,,2013-05-01 21:11:00,
2013-05-01 16:32:00,42.0,38.0,-100.00,NNW,335,4.0,17.0,86,-99.99,,,-99.99,,2013-05-01 21:32:00,
2013-05-01 16:43:00,42.0,38.0,-100.00,NNW,335,4.0,17.0,86,-99.99,,,-99.99,,2013-05-01 21:43:00,
2013-05-01 16:53:00,42.0,38.0,-100.00,NNW,335,4.0,17.0,86,-99.99,,,-99.99,,2013-05-01 21:53:00,
2013-05-01 17:03:00,42.0,38.0,-100.00,NNW,335,4.0,17.0,86,-99.99,,,-99.99,,2013-05-01 22:03:00,
2013-05-01 17:12:00,42.0,38.0,-100.00,NNW,335,4.0,17.0,86,-99.99,,,-99.99,,2013-05-01 22:12:00,
2013-05-01 17:33:00,40.0,36.0,-100.00,NNW,340,8.0,17.0,86,-99.99,,,-99.99,,2013-05-01 22:33:00,
2013-05-01 17:42:00,40.0,36.0,-100.00,NNW,340,8.0,17.0,86,-99.99,,,-99.99,,2013-05-01 22:42:00,
2013-05-01 17:53:00,40.0,36.0,-100.00,NNW,340,8.0,17.0,86,-99.99,,,-99.99,,2013-05-01 22:53:00,
2013-05-01 18:02:00,40.0,36.0,-100.00,NNW,340,8.0,17.0,86,-99.99,,,-99.99,,2013-05-01 23:02:00,
2013-05-01 18:11:00,40.0,36.0,-100.00,NNW,340,8.0,17.0,86,-99.99,,,-99.99,,2013-05-01 23:11:00,
2013-05-01 18:32:00,38.0,36.0,-100.00,NNW,330,7.0,15.0,93,-99.99,,,-99.99,,2013-05-01 23:32:00,
2013-05-01 18:42:00,38.0,36.0,-100.00,NNW,330,7.0,15.0,93,-99.99,,,-99.99,,2013-05-01 23:42:00,
2013-05-01 18:52:00,38.0,36.0,-100.00,NNW,330,7.0,15.0,93,-99.99,,,-99.99,,2013-05-01 23:52:00,
2013-05-01 19:01:00,38.0,36.0,-100.00,NNW,330,7.0,15.0,93,-99.99,,,-99.99,,2013-05-02 00:01:00,
2013-05-01 19:11:00,38.0,36.0,-100.00,NNW,330,7.0,15.0,93,-99.99,,,-99.99,,2013-05-02 00:11:00,
2013-05-01 19:32:00,36.0,35.0,-100.00,NNW,340,7.0,17.0,98,-99.99,,,-99.99,,2013-05-02 00:32:00,
2013-05-01 19:42:00,36.0,35.0,-100.00,NNW,340,7.0,17.0,98,-99.99,,,-99.99,,2013-05-02 00:42:00,
2013-05-01 19:52:00,36.0,35.0,-100.00,NNW,340,7.0,17.0,98,-99.99,,,-99.99,,2013-05-02 00:52:00,
2013-05-01 20:01:00,36.0,35.0,-100.00,NNW,340,7.0,17.0,98,-99.99,,,-99.99,,2013-05-02 01:01:00,
2013-05-01 20:11:00,36.0,35.0,-100.00,NNW,340,7.0,17.0,98,-99.99,,,-99.99,,2013-05-02 01:11:00,
2013-05-01 20:32:00,35.0,35.0,-100.00,NNE,15,4.0,15.0,99,-99.99,,,-99.99,,2013-05-02 01:32:00,
2013-05-01 20:42:00,35.0,35.0,-100.00,NNE,15,4.0,15.0,99,-99.99,,,-99.99,,2013-05-02 01:42:00,
2013-05-01 20:52:00,35.0,35.0,-100.00,NNE,15,4.0,15.0,99,-99.99,,,-99.99,,2013-05-02 01:52:00,
2013-05-01 21:02:00,35.0,35.0,-100.00,NNE,15,4.0,15.0,99,-99.99,,,-99.99,,2013-05-02 02:02:00,
2013-05-01 21:12:00,35.0,35.0,-100.00,NNE,15,4.0,15.0,99,-99.99,,,-99.99,,2013-05-02 02:12:00,
2013-05-01 21:32:00,35.0,35.0,-100.00,NNE,20,2.0,12.0,99,-99.99,,,-99.99,,2013-05-02 02:32:00,
2013-05-01 21:42:00,35.0,35.0,-100.00,NNE,20,2.0,12.0,99,-99.99,,,-99.99,,2013-05-02 02:42:00,
2013-05-01 21:51:00,35.0,35.0,-100.00,NNE,20,2.0,12.0,99,-99.99,,,-99.99,,2013-05-02 02:51:00,
2013-05-01 22:01:00,35.0,35.0,-100.00,NNE,20,2.0,12.0,99,-99.99,,,-99.99,,2013-05-02 03:01:00,
2013-05-01 22:11:00,35.0,35.0,-100.00,NNE,20,2.0,12.0,99,-99.99,,,-99.99,,2013-05-02 03:11:00,
2013-05-01 22:33:00,35.0,35.0,-100.00,North,350,4.0,10.0,99,-99.99,,,-99.99,,2013-05-02 03:33:00,
2013-05-01 22:43:00,35.0,35.0,-100.00,North,350,4.0,10.0,99,-99.99,,,-99.99,,2013-05-02 03:43:00,
2013-05-01 22:53:00,35.0,35.0,-100.00,North,350,4.0,10.0,99,-99.99,,,-99.99,,2013-05-02 03:53:00,
2013-05-01 23:03:00,35.0,35.0,-100.00,North,350,4.0,10.0,99,-99.99,,,-99.99,,2013-05-02 04:03:00,
2013-05-01 23:12:00,35.0,35.0,-100.00,North,350,4.0,10.0,99,-99.99,,,-99.99,,2013-05-02 04:12:00,
2013-05-01 23:33:00,35.0,34.0,-100.00,NNE,15,3.0,9.0,99,-99.99,,,-99.99,,2013-05-02 04:33:00,
2013-05-01 23:43:00,35.0,34.0,-100.00,NNE,15,3.0,9.0,99,-99.99,,,-99.99,,2013-05-02 04:43:00,
2013-05-01 23:52:00,35.0,34.0,-100.00,NNE,15,3.0,9.0,99,-99.99,,,-99.99,,2013-05-02 04:52:00,